createdAt,value
2018-11-14T00:02:32.050Z,30.33
2018-11-14T00:07:26.830Z,34.30
2018-11-14T00:12:21.563Z,30.93
2018-11-14T00:17:16.708Z,32.77
2018-11-14T00:22:11.475Z,28.73
2018-11-14T00:27:06.590Z,34.20
2018-11-14T00:32:01.287Z,33.77
2018-11-14T00:36:56.121Z,25.60
2018-11-14T00:41:50.812Z,27.43
2018-11-14T00:46:45.528Z,19.03
2018-11-14T00:51:40.245Z,25.07
2018-11-14T00:56:35.020Z,20.63
2018-11-14T01:01:29.899Z,24.00
2018-11-14T01:06:24.647Z,22.63
2018-11-14T01:11:19.444Z,22.00
2018-11-14T01:16:14.180Z,24.23
2018-11-14T01:21:08.934Z,23.40
2018-11-14T01:26:03.619Z,24.53
2018-11-14T01:30:58.387Z,26.47
2018-11-14T01:35:53.163Z,30.17
2018-11-14T01:40:47.852Z,27.73
2018-11-14T01:45:42.599Z,29.00
2018-11-14T01:50:37.321Z,26.33
2018-11-14T01:55:32.088Z,28.97
2018-11-14T02:00:26.871Z,33.40
2018-11-14T02:05:24.603Z,31.87
2018-11-14T02:10:20.546Z,33.13
2018-11-14T02:15:23.832Z,33.60
2018-11-14T02:20:21.625Z,31.80
2018-11-14T02:25:16.868Z,34.97
2018-11-14T02:30:15.657Z,32.43
2018-11-14T02:35:10.849Z,35.40
2018-11-14T02:40:06.932Z,31.63
2018-11-14T02:45:01.671Z,30.07
2018-11-14T02:49:56.421Z,30.53
2018-11-14T02:54:51.158Z,32.30
2018-11-14T02:59:45.833Z,28.40
2018-11-14T03:04:40.555Z,30.67
2018-11-14T03:09:35.265Z,30.97
2018-11-14T03:14:30.001Z,26.63
2018-11-14T03:19:24.751Z,28.50
2018-11-14T03:24:19.489Z,25.77
2018-11-14T03:29:14.252Z,33.07
2018-11-14T03:34:09.168Z,23.43
2018-11-14T03:39:04.582Z,29.37
2018-11-14T03:43:59.336Z,28.90
2018-11-14T03:48:54.056Z,27.20
2018-11-14T03:53:48.941Z,27.37
2018-11-14T03:58:43.659Z,26.93
2018-11-14T04:03:38.487Z,27.63
2018-11-14T04:08:33.251Z,25.83
2018-11-14T04:13:28.007Z,28.50
2018-11-14T04:18:22.737Z,28.73
2018-11-14T04:23:17.458Z,32.93
2018-11-14T04:28:12.163Z,32.93
2018-11-14T04:33:07.274Z,29.67
2018-11-14T04:38:02.045Z,26.97
2018-11-14T04:42:56.741Z,28.13
2018-11-14T04:47:51.608Z,31.20
2018-11-14T04:52:47.009Z,30.03
2018-11-14T04:57:42.623Z,29.47
2018-11-14T05:02:37.487Z,26.77
2018-11-14T05:07:32.123Z,32.80
2018-11-14T05:12:26.856Z,29.53
2018-11-14T05:17:21.587Z,28.97
2018-11-14T05:22:16.326Z,28.50
2018-11-14T05:27:11.038Z,23.73
2018-11-14T05:32:05.827Z,28.57
2018-11-14T05:37:00.787Z,26.10
2018-11-14T05:41:55.556Z,30.60
2018-11-14T05:46:50.280Z,24.57
2018-11-14T05:51:45.110Z,28.40
2018-11-14T05:56:39.848Z,25.60
2018-11-14T06:01:34.574Z,22.83
2018-11-14T06:06:29.316Z,25.37
2018-11-14T06:11:23.999Z,23.97
2018-11-14T06:16:29.645Z,22.47
2018-11-14T06:21:24.400Z,21.70
2018-11-14T06:26:19.136Z,18.13
2018-11-14T06:31:13.825Z,20.50
2018-11-14T06:36:08.574Z,17.73
2018-11-14T06:41:06.255Z,19.20
2018-11-14T06:46:00.974Z,18.40
2018-11-14T06:50:55.698Z,24.47
2018-11-14T06:55:50.484Z,20.27
2018-11-14T07:00:45.225Z,20.70
2018-11-14T07:05:40.039Z,18.07
2018-11-14T07:10:36.109Z,18.33
2018-11-14T07:15:30.901Z,19.80
2018-11-14T07:20:27.827Z,17.87
2018-11-14T07:25:22.583Z,17.83
2018-11-14T07:30:26.226Z,20.37
2018-11-14T07:35:21.044Z,15.77
2018-11-14T07:40:15.775Z,15.87
2018-11-14T07:45:13.409Z,14.97
2018-11-14T07:50:15.706Z,14.63
2018-11-14T07:55:11.855Z,14.63
2018-11-14T08:00:13.327Z,11.63
2018-11-14T08:05:08.368Z,16.23
2018-11-14T08:10:03.251Z,12.30
2018-11-14T08:14:58.252Z,11.23
2018-11-14T08:19:53.048Z,12.00
2018-11-14T08:24:47.806Z,13.20
2018-11-14T08:29:42.590Z,11.03
2018-11-14T08:34:37.362Z,12.93
2018-11-14T08:39:32.097Z,13.90
2018-11-14T08:44:26.850Z,16.93
2018-11-14T08:49:21.621Z,17.33
2018-11-14T08:54:16.428Z,16.17
2018-11-14T08:59:11.196Z,15.73
2018-11-14T09:04:07.541Z,22.20
2018-11-14T09:09:02.463Z,16.80
2018-11-14T09:13:57.276Z,18.63
2018-11-14T09:18:52.217Z,16.00
2018-11-14T09:23:47.932Z,14.57
2018-11-14T09:28:42.712Z,16.47
2018-11-14T09:33:37.460Z,16.27
2018-11-14T09:38:32.366Z,19.20
2018-11-14T09:43:27.158Z,15.60
2018-11-14T09:48:21.937Z,17.33
2018-11-14T09:53:16.737Z,17.60
2018-11-14T09:58:11.512Z,21.03
2018-11-14T10:03:12.244Z,16.33
2018-11-14T10:08:07.277Z,16.47
2018-11-14T10:13:02.194Z,14.17
2018-11-14T10:17:57.050Z,16.90
2018-11-14T10:22:52.131Z,16.57
2018-11-14T10:27:47.673Z,20.83
2018-11-14T10:32:43.466Z,18.40
2018-11-14T10:37:38.709Z,15.90
2018-11-14T10:42:42.770Z,17.87
2018-11-14T10:47:37.563Z,14.83
2018-11-14T10:52:32.537Z,12.53
2018-11-14T10:57:27.348Z,12.70
2018-11-14T11:02:27.132Z,10.40
2018-11-14T11:07:26.896Z,9.23
2018-11-14T11:12:26.845Z,10.13
2018-11-14T11:17:25.656Z,9.83
2018-11-14T11:22:20.475Z,9.47
2018-11-14T11:27:15.297Z,10.27
2018-11-14T11:32:10.176Z,13.27
2018-11-14T11:37:05.228Z,9.17
2018-11-14T11:42:00.070Z,9.73
2018-11-14T11:47:07.925Z,10.17
2018-11-14T11:52:02.817Z,11.00
2018-11-14T11:56:57.667Z,11.43
2018-11-14T12:01:52.464Z,10.97
2018-11-14T12:06:47.303Z,11.23
2018-11-14T12:11:42.140Z,10.17
2018-11-14T12:16:37.255Z,11.40
2018-11-14T12:21:32.068Z,10.70
2018-11-14T12:26:26.940Z,10.53
2018-11-14T12:31:21.729Z,11.80
2018-11-14T12:36:16.597Z,9.60
2018-11-14T12:41:11.410Z,10.43
2018-11-14T12:46:06.480Z,10.87
2018-11-14T12:51:01.349Z,10.07
2018-11-14T12:55:56.146Z,10.47
2018-11-14T13:00:50.951Z,10.57
2018-11-14T13:05:45.733Z,10.33
2018-11-14T13:27:01.692Z,10.67
2018-11-14T13:31:59.661Z,9.63
2018-11-14T13:36:57.666Z,11.87
2018-11-14T13:41:55.723Z,9.07
2018-11-14T13:46:52.467Z,9.17
2018-11-14T13:51:48.901Z,9.07
2018-11-14T13:56:46.492Z,12.40
2018-11-14T14:01:41.668Z,11.07
2018-11-14T14:06:37.292Z,11.77
2018-11-14T14:11:32.698Z,9.93
2018-11-14T14:16:27.772Z,10.77
2018-11-14T14:21:29.182Z,10.13
2018-11-14T14:26:24.631Z,10.37
2018-11-14T14:31:19.497Z,10.30
2018-11-14T14:36:14.754Z,11.57
2018-11-14T14:41:09.556Z,11.47
2018-11-14T14:46:04.737Z,11.07
2018-11-14T14:51:00.771Z,11.07
2018-11-14T14:55:56.076Z,12.20
2018-11-14T15:00:50.909Z,11.90
2018-11-14T15:05:45.772Z,12.57
2018-11-14T15:10:41.239Z,12.23
2018-11-14T15:15:36.104Z,12.03
2018-11-14T15:20:33.168Z,14.90
2018-11-14T15:26:56.687Z,13.23
2018-11-14T15:31:52.472Z,13.40
2018-11-14T15:36:47.404Z,11.80
2018-11-14T15:41:43.303Z,12.67
2018-11-14T15:46:40.976Z,14.53
2018-11-14T15:51:35.823Z,13.10
2018-11-14T15:56:50.250Z,13.80
2018-11-14T16:01:45.621Z,16.33
2018-11-14T16:06:40.857Z,14.63
2018-11-14T16:11:35.661Z,15.87
2018-11-14T16:16:30.531Z,13.27
2018-11-14T16:21:25.418Z,15.80
2018-11-14T16:26:20.849Z,14.27
2018-11-14T16:31:16.769Z,15.37
2018-11-14T16:36:12.451Z,15.87
2018-11-14T16:41:15.001Z,15.07
2018-11-14T16:46:09.924Z,16.00
2018-11-14T16:51:05.804Z,15.23
2018-11-14T16:56:00.643Z,17.57
2018-11-14T17:00:57.751Z,17.30
2018-11-14T17:05:56.396Z,20.60
2018-11-14T17:10:51.724Z,15.73
2018-11-14T17:15:46.621Z,14.27
2018-11-14T17:20:41.962Z,16.43
2018-11-14T17:25:36.762Z,16.70
2018-11-14T17:30:32.361Z,16.30
2018-11-14T19:01:33.427Z,22.90
2018-11-14T19:06:56.689Z,24.23
2018-11-14T19:30:16.799Z,24.97
2018-11-14T19:57:16.480Z,23.03
2018-11-14T20:02:11.505Z,24.27
2018-11-14T20:07:06.878Z,23.13
2018-11-14T20:12:01.769Z,23.27
2018-11-14T20:16:56.618Z,22.67
2018-11-14T20:21:52.206Z,25.90
2018-11-14T20:26:48.968Z,24.73
2018-11-14T20:31:44.998Z,25.13
2018-11-14T20:36:40.378Z,27.73
2018-11-14T20:41:35.920Z,28.77
2018-11-14T20:46:30.894Z,28.83
2018-11-14T20:51:25.715Z,23.30
2018-11-14T20:56:21.293Z,21.73
2018-11-14T21:01:16.083Z,18.93
2018-11-14T21:06:10.992Z,18.17
2018-11-14T21:11:06.706Z,17.83
2018-11-14T21:16:11.422Z,20.13
2018-11-14T21:21:44.357Z,20.57
2018-11-14T21:55:48.791Z,25.23
2018-11-14T22:00:54.032Z,31.73
2018-11-14T22:05:55.908Z,31.13
2018-11-14T22:15:31.162Z,33.20
2018-11-14T22:20:29.769Z,17.13
2018-11-14T22:29:19.994Z,18.20
2018-11-14T22:34:15.228Z,15.43
2018-11-14T22:39:15.708Z,14.83
2018-11-14T22:50:25.209Z,20.83
2018-11-14T22:55:45.918Z,24.17
2018-11-14T23:18:18.665Z,17.50
2018-11-14T23:23:37.007Z,14.53
2018-11-14T23:28:36.372Z,14.47
2018-11-14T23:33:43.456Z,15.43
2018-11-14T23:39:05.293Z,16.27
2018-11-14T23:44:21.023Z,17.97
2018-11-14T23:49:43.122Z,21.10
2018-11-14T23:54:56.721Z,15.30
